Terminal Aerodrome Forecast
Issued by NWS

Home | Current Version | Previous Version | Text Only | Print | Product List | Glossary On
Versions: 1 2 3 4 5 6 7 8 9 10 11 12 13 14 15 16 17 18 19 20 21 22 23 24 25 26 27
931
FTUS41 KALY 112330
TAFPSF
TAF
KPSF 112330Z 1200/1224 30018G30KT P6SM VCSH OVC035
     FM120200 29014G25KT P6SM BKN035
     FM120700 29008KT P6SM SCT035
     FM121300 24004KT P6SM SCT050 SCT250
     FM121800 22010KT P6SM VCSH OVC050=

USA.gov is the U.S. government's official web portal to all federal, state and local government web resources and services.